sensor_id;sensor_type;location;lat;lon;timestamp;P1;durP1;ratioP1;P2;durP2;ratioP2
7583;SDS011;74673;41.756;25.992;2023-12-20T00:02:16;1.00;;;1.00;;
7583;SDS011;74673;41.756;25.992;2023-12-20T00:04:43;1.20;;;1.20;;
7583;SDS011;74673;41.756;25.992;2023-12-20T00:07:10;1.10;;;1.00;;
7583;SDS011;74673;41.756;25.992;2023-12-20T00:09:37;1.07;;;1.07;;
7583;SDS011;74673;41.756;25.992;2023-12-20T00:12:06;1.00;;;1.00;;
7583;SDS011;74673;41.756;25.992;2023-12-20T00:14:34;0.93;;;0.93;;
7583;SDS011;74673;41.756;25.992;2023-12-20T00:17:01;0.80;;;0.80;;
7583;SDS011;74673;41.756;25.992;2023-12-20T00:19:28;1.07;;;1.07;;
7583;SDS011;74673;41.756;25.992;2023-12-20T00:21:55;1.13;;;1.13;;
7583;SDS011;74673;41.756;25.992;2023-12-20T00:24:22;0.97;;;0.97;;
7583;SDS011;74673;41.756;25.992;2023-12-20T00:26:49;1.07;;;1.07;;
7583;SDS011;74673;41.756;25.992;2023-12-20T00:29:18;1.00;;;1.00;;
7583;SDS011;74673;41.756;25.992;2023-12-20T00:31:45;1.10;;;1.10;;
7583;SDS011;74673;41.756;25.992;2023-12-20T00:34:12;1.00;;;1.00;;
7583;SDS011;74673;41.756;25.992;2023-12-20T00:36:39;0.90;;;0.90;;
7583;SDS011;74673;41.756;25.992;2023-12-20T00:39:06;1.73;;;1.13;;
7583;SDS011;74673;41.756;25.992;2023-12-20T00:41:33;1.00;;;1.00;;
7583;SDS011;74673;41.756;25.992;2023-12-20T00:44:00;0.90;;;0.90;;
7583;SDS011;74673;41.756;25.992;2023-12-20T00:46:29;1.00;;;1.00;;
7583;SDS011;74673;41.756;25.992;2023-12-20T00:48:56;1.00;;;1.00;;
7583;SDS011;74673;41.756;25.992;2023-12-20T00:51:23;1.10;;;1.10;;
7583;SDS011;74673;41.756;25.992;2023-12-20T00:53:50;1.07;;;1.07;;
7583;SDS011;74673;41.756;25.992;2023-12-20T00:56:20;1.00;;;1.00;;
7583;SDS011;74673;41.756;25.992;2023-12-20T00:58:47;1.20;;;1.20;;
7583;SDS011;74673;41.756;25.992;2023-12-20T01:01:15;1.00;;;1.00;;
7583;SDS011;74673;41.756;25.992;2023-12-20T01:03:43;1.10;;;1.10;;
7583;SDS011;74673;41.756;25.992;2023-12-20T01:06:11;1.10;;;1.10;;
7583;SDS011;74673;41.756;25.992;2023-12-20T01:08:38;1.00;;;1.00;;
7583;SDS011;74673;41.756;25.992;2023-12-20T01:11:05;1.20;;;1.20;;
7583;SDS011;74673;41.756;25.992;2023-12-20T01:13:32;1.30;;;1.30;;
7583;SDS011;74673;41.756;25.992;2023-12-20T01:15:59;1.10;;;1.10;;
7583;SDS011;74673;41.756;25.992;2023-12-20T01:18:26;1.00;;;1.00;;
7583;SDS011;74673;41.756;25.992;2023-12-20T01:20:55;1.10;;;1.10;;
7583;SDS011;74673;41.756;25.992;2023-12-20T01:23:22;1.00;;;1.00;;
7583;SDS011;74673;41.756;25.992;2023-12-20T01:25:49;1.20;;;1.20;;
7583;SDS011;74673;41.756;25.992;2023-12-20T01:28:16;1.10;;;1.10;;
7583;SDS011;74673;41.756;25.992;2023-12-20T01:30:43;1.10;;;1.10;;
7583;SDS011;74673;41.756;25.992;2023-12-20T01:33:10;0.90;;;0.90;;
7583;SDS011;74673;41.756;25.992;2023-12-20T01:35:37;1.30;;;1.10;;
7583;SDS011;74673;41.756;25.992;2023-12-20T01:38:06;1.50;;;1.10;;
7583;SDS011;74673;41.756;25.992;2023-12-20T01:40:33;1.00;;;1.00;;
7583;SDS011;74673;41.756;25.992;2023-12-20T01:43:00;1.00;;;1.00;;
7583;SDS011;74673;41.756;25.992;2023-12-20T01:45:27;1.10;;;1.10;;
7583;SDS011;74673;41.756;25.992;2023-12-20T01:47:55;1.07;;;1.07;;
7583;SDS011;74673;41.756;25.992;2023-12-20T01:50:23;0.97;;;0.97;;
7583;SDS011;74673;41.756;25.992;2023-12-20T01:52:51;0.97;;;0.97;;
7583;SDS011;74673;41.756;25.992;2023-12-20T01:55:22;1.00;;;1.00;;
7583;SDS011;74673;41.756;25.992;2023-12-20T01:57:49;1.00;;;1.00;;
7583;SDS011;74673;41.756;25.992;2023-12-20T02:00:17;1.00;;;1.00;;
7583;SDS011;74673;41.756;25.992;2023-12-20T02:02:48;1.07;;;1.07;;
7583;SDS011;74673;41.756;25.992;2023-12-20T02:05:17;1.13;;;1.13;;
7583;SDS011;74673;41.756;25.992;2023-12-20T02:07:44;0.90;;;0.90;;
7583;SDS011;74673;41.756;25.992;2023-12-20T02:10:11;1.10;;;1.10;;
7583;SDS011;74673;41.756;25.992;2023-12-20T02:12:40;1.10;;;1.10;;
7583;SDS011;74673;41.756;25.992;2023-12-20T02:15:07;1.00;;;1.00;;
7583;SDS011;74673;41.756;25.992;2023-12-20T02:17:34;1.23;;;1.23;;
7583;SDS011;74673;41.756;25.992;2023-12-20T02:20:02;1.13;;;1.10;;
7583;SDS011;74673;41.756;25.992;2023-12-20T02:22:32;1.03;;;1.03;;
7583;SDS011;74673;41.756;25.992;2023-12-20T02:24:59;1.00;;;1.00;;
7583;SDS011;74673;41.756;25.992;2023-12-20T02:27:26;1.10;;;1.10;;
7583;SDS011;74673;41.756;25.992;2023-12-20T02:29:54;1.13;;;1.13;;
7583;SDS011;74673;41.756;25.992;2023-12-20T02:32:21;1.10;;;1.10;;
7583;SDS011;74673;41.756;25.992;2023-12-20T02:34:51;1.20;;;1.10;;
7583;SDS011;74673;41.756;25.992;2023-12-20T02:37:18;1.00;;;1.00;;
7583;SDS011;74673;41.756;25.992;2023-12-20T02:39:47;0.90;;;0.90;;
7583;SDS011;74673;41.756;25.992;2023-12-20T02:42:14;1.00;;;1.00;;
7583;SDS011;74673;41.756;25.992;2023-12-20T02:44:41;1.00;;;1.00;;
7583;SDS011;74673;41.756;25.992;2023-12-20T02:47:08;1.00;;;1.00;;
7583;SDS011;74673;41.756;25.992;2023-12-20T02:49:35;1.00;;;1.00;;
7583;SDS011;74673;41.756;25.992;2023-12-20T02:52:02;1.47;;;1.00;;
7583;SDS011;74673;41.756;25.992;2023-12-20T02:54:30;1.10;;;1.10;;
7583;SDS011;74673;41.756;25.992;2023-12-20T02:56:58;1.27;;;1.10;;
7583;SDS011;74673;41.756;25.992;2023-12-20T02:59:26;1.07;;;1.07;;
7583;SDS011;74673;41.756;25.992;2023-12-20T03:01:53;0.90;;;0.90;;
7583;SDS011;74673;41.756;25.992;2023-12-20T03:04:20;1.10;;;1.10;;
7583;SDS011;74673;41.756;25.992;2023-12-20T03:06:47;1.07;;;1.07;;
7583;SDS011;74673;41.756;25.992;2023-12-20T03:09:14;0.90;;;0.90;;
7583;SDS011;74673;41.756;25.992;2023-12-20T03:11:41;1.70;;;1.60;;
7583;SDS011;74673;41.756;25.992;2023-12-20T03:14:10;1.20;;;1.20;;
7583;SDS011;74673;41.756;25.992;2023-12-20T03:16:37;1.00;;;1.00;;
7583;SDS011;74673;41.756;25.992;2023-12-20T03:19:04;1.00;;;1.00;;
7583;SDS011;74673;41.756;25.992;2023-12-20T03:21:31;1.33;;;1.33;;
7583;SDS011;74673;41.756;25.992;2023-12-20T03:23:58;1.10;;;1.10;;
7583;SDS011;74673;41.756;25.992;2023-12-20T03:26:25;1.10;;;1.10;;
7583;SDS011;74673;41.756;25.992;2023-12-20T03:28:52;1.30;;;1.20;;
7583;SDS011;74673;41.756;25.992;2023-12-20T03:31:21;1.07;;;1.07;;
7583;SDS011;74673;41.756;25.992;2023-12-20T03:33:48;1.13;;;1.13;;
7583;SDS011;74673;41.756;25.992;2023-12-20T03:36:16;1.37;;;1.07;;
7583;SDS011;74673;41.756;25.992;2023-12-20T03:38:43;1.20;;;1.10;;
7583;SDS011;74673;41.756;25.992;2023-12-20T03:41:10;2.73;;;1.10;;
7583;SDS011;74673;41.756;25.992;2023-12-20T03:43:38;1.00;;;1.00;;
7583;SDS011;74673;41.756;25.992;2023-12-20T03:46:05;1.00;;;1.00;;
7583;SDS011;74673;41.756;25.992;2023-12-20T03:48:33;0.90;;;0.90;;
7583;SDS011;74673;41.756;25.992;2023-12-20T03:51:01;1.00;;;1.00;;
7583;SDS011;74673;41.756;25.992;2023-12-20T03:53:28;0.97;;;0.97;;
7583;SDS011;74673;41.756;25.992;2023-12-20T03:55:55;0.90;;;0.90;;
7583;SDS011;74673;41.756;25.992;2023-12-20T03:58:22;0.80;;;0.80;;
7583;SDS011;74673;41.756;25.992;2023-12-20T04:00:49;1.17;;;1.17;;
7583;SDS011;74673;41.756;25.992;2023-12-20T04:03:16;0.90;;;0.90;;
7583;SDS011;74673;41.756;25.992;2023-12-20T04:05:45;1.10;;;1.10;;
7583;SDS011;74673;41.756;25.992;2023-12-20T04:08:12;1.00;;;1.00;;
7583;SDS011;74673;41.756;25.992;2023-12-20T04:10:39;1.00;;;1.00;;
7583;SDS011;74673;41.756;25.992;2023-12-20T04:13:06;1.00;;;1.00;;
7583;SDS011;74673;41.756;25.992;2023-12-20T04:15:33;1.20;;;1.20;;
7583;SDS011;74673;41.756;25.992;2023-12-20T04:18:01;1.27;;;1.17;;
7583;SDS011;74673;41.756;25.992;2023-12-20T04:20:28;1.07;;;1.07;;
7583;SDS011;74673;41.756;25.992;2023-12-20T04:22:56;0.90;;;0.90;;
7583;SDS011;74673;41.756;25.992;2023-12-20T04:25:23;0.90;;;0.90;;
7583;SDS011;74673;41.756;25.992;2023-12-20T04:27:51;1.20;;;1.20;;
7583;SDS011;74673;41.756;25.992;2023-12-20T04:30:19;1.20;;;1.20;;
7583;SDS011;74673;41.756;25.992;2023-12-20T04:32:46;1.83;;;1.53;;
7583;SDS011;74673;41.756;25.992;2023-12-20T04:35:13;1.10;;;1.00;;
7583;SDS011;74673;41.756;25.992;2023-12-20T04:37:40;1.03;;;1.03;;
7583;SDS011;74673;41.756;25.992;2023-12-20T04:40:09;1.60;;;1.13;;
7583;SDS011;74673;41.756;25.992;2023-12-20T04:42:36;0.90;;;0.90;;
7583;SDS011;74673;41.756;25.992;2023-12-20T04:45:04;1.40;;;1.30;;
7583;SDS011;74673;41.756;25.992;2023-12-20T04:47:32;1.40;;;1.30;;
7583;SDS011;74673;41.756;25.992;2023-12-20T04:49:59;1.30;;;1.20;;
7583;SDS011;74673;41.756;25.992;2023-12-20T04:52:27;0.90;;;0.90;;
7583;SDS011;74673;41.756;25.992;2023-12-20T04:54:54;1.20;;;1.10;;
7583;SDS011;74673;41.756;25.992;2023-12-20T04:57:23;1.03;;;1.03;;
7583;SDS011;74673;41.756;25.992;2023-12-20T04:59:50;1.10;;;1.10;;
7583;SDS011;74673;41.756;25.992;2023-12-20T05:02:17;1.00;;;1.00;;
7583;SDS011;74673;41.756;25.992;2023-12-20T05:04:44;1.00;;;1.00;;
7583;SDS011;74673;41.756;25.992;2023-12-20T05:07:11;1.00;;;1.00;;
7583;SDS011;74673;41.756;25.992;2023-12-20T05:09:38;0.90;;;0.90;;
7583;SDS011;74673;41.756;25.992;2023-12-20T05:12:06;0.90;;;0.90;;
7583;SDS011;74673;41.756;25.992;2023-12-20T05:14:35;1.00;;;1.00;;
7583;SDS011;74673;41.756;25.992;2023-12-20T05:17:03;1.10;;;1.10;;
7583;SDS011;74673;41.756;25.992;2023-12-20T05:19:30;1.03;;;1.03;;
7583;SDS011;74673;41.756;25.992;2023-12-20T05:22:00;1.40;;;1.40;;
7583;SDS011;74673;41.756;25.992;2023-12-20T05:24:27;1.00;;;1.00;;
7583;SDS011;74673;41.756;25.992;2023-12-20T05:26:54;1.00;;;1.00;;
7583;SDS011;74673;41.756;25.992;2023-12-20T05:29:22;1.17;;;1.17;;
7583;SDS011;74673;41.756;25.992;2023-12-20T05:31:51;1.10;;;1.10;;
7583;SDS011;74673;41.756;25.992;2023-12-20T05:34:18;1.33;;;1.20;;
7583;SDS011;74673;41.756;25.992;2023-12-20T05:36:45;1.10;;;1.10;;
7583;SDS011;74673;41.756;25.992;2023-12-20T05:39:12;1.47;;;1.37;;
7583;SDS011;74673;41.756;25.992;2023-12-20T05:41:40;1.03;;;1.03;;
7583;SDS011;74673;41.756;25.992;2023-12-20T05:44:07;1.40;;;1.10;;
7583;SDS011;74673;41.756;25.992;2023-12-20T05:46:35;1.00;;;1.00;;
7583;SDS011;74673;41.756;25.992;2023-12-20T05:49:03;0.90;;;0.90;;
7583;SDS011;74673;41.756;25.992;2023-12-20T05:51:31;1.20;;;1.20;;
7583;SDS011;74673;41.756;25.992;2023-12-20T05:53:58;1.00;;;1.00;;
7583;SDS011;74673;41.756;25.992;2023-12-20T05:56:25;1.20;;;1.20;;
7583;SDS011;74673;41.756;25.992;2023-12-20T05:58:52;0.90;;;0.90;;
7583;SDS011;74673;41.756;25.992;2023-12-20T06:01:19;1.00;;;1.00;;
7583;SDS011;74673;41.756;25.992;2023-12-20T06:03:47;1.10;;;1.10;;
7583;SDS011;74673;41.756;25.992;2023-12-20T06:06:15;1.53;;;1.20;;
7583;SDS011;74673;41.756;25.992;2023-12-20T06:08:42;0.90;;;0.90;;
7583;SDS011;74673;41.756;25.992;2023-12-20T06:11:10;1.10;;;1.10;;
7583;SDS011;74673;41.756;25.992;2023-12-20T06:13:38;1.23;;;1.23;;
7583;SDS011;74673;41.756;25.992;2023-12-20T06:16:05;0.80;;;0.80;;
7583;SDS011;74673;41.756;25.992;2023-12-20T06:18:33;1.03;;;1.03;;
7583;SDS011;74673;41.756;25.992;2023-12-20T06:21:01;1.20;;;1.20;;
7583;SDS011;74673;41.756;25.992;2023-12-20T06:23:30;1.30;;;1.30;;
7583;SDS011;74673;41.756;25.992;2023-12-20T06:25:57;1.20;;;1.20;;
7583;SDS011;74673;41.756;25.992;2023-12-20T06:28:24;1.20;;;1.13;;
7583;SDS011;74673;41.756;25.992;2023-12-20T06:30:51;1.00;;;1.00;;
7583;SDS011;74673;41.756;25.992;2023-12-20T06:33:19;1.40;;;1.30;;
7583;SDS011;74673;41.756;25.992;2023-12-20T06:35:48;1.10;;;1.10;;
7583;SDS011;74673;41.756;25.992;2023-12-20T06:38:15;0.90;;;0.90;;
7583;SDS011;74673;41.756;25.992;2023-12-20T06:40:44;1.00;;;1.00;;
7583;SDS011;74673;41.756;25.992;2023-12-20T06:43:11;1.20;;;1.20;;
7583;SDS011;74673;41.756;25.992;2023-12-20T06:45:38;0.90;;;0.90;;
7583;SDS011;74673;41.756;25.992;2023-12-20T06:48:06;1.03;;;1.03;;
7583;SDS011;74673;41.756;25.992;2023-12-20T06:50:33;1.03;;;1.03;;
7583;SDS011;74673;41.756;25.992;2023-12-20T06:53:05;1.20;;;1.20;;
7583;SDS011;74673;41.756;25.992;2023-12-20T06:55:32;1.10;;;1.10;;
7583;SDS011;74673;41.756;25.992;2023-12-20T06:58:01;1.30;;;1.30;;
7583;SDS011;74673;41.756;25.992;2023-12-20T07:00:29;1.10;;;1.10;;
7583;SDS011;74673;41.756;25.992;2023-12-20T07:02:56;1.13;;;1.00;;
7583;SDS011;74673;41.756;25.992;2023-12-20T07:05:23;1.00;;;1.00;;
7583;SDS011;74673;41.756;25.992;2023-12-20T07:07:50;1.37;;;1.37;;
7583;SDS011;74673;41.756;25.992;2023-12-20T07:10:17;1.00;;;1.00;;
7583;SDS011;74673;41.756;25.992;2023-12-20T07:12:45;2.20;;;1.20;;
7583;SDS011;74673;41.756;25.992;2023-12-20T07:15:15;1.10;;;1.10;;
7583;SDS011;74673;41.756;25.992;2023-12-20T07:17:42;1.00;;;1.00;;
7583;SDS011;74673;41.756;25.992;2023-12-20T07:20:09;1.10;;;1.07;;
7583;SDS011;74673;41.756;25.992;2023-12-20T07:22:38;1.80;;;1.70;;
7583;SDS011;74673;41.756;25.992;2023-12-20T07:25:06;2.10;;;1.90;;
7583;SDS011;74673;41.756;25.992;2023-12-20T07:27:33;2.30;;;2.20;;
7583;SDS011;74673;41.756;25.992;2023-12-20T07:30:00;3.67;;;3.33;;
7583;SDS011;74673;41.756;25.992;2023-12-20T07:32:29;3.47;;;3.27;;
7583;SDS011;74673;41.756;25.992;2023-12-20T07:34:57;1.57;;;1.47;;
7583;SDS011;74673;41.756;25.992;2023-12-20T07:37:24;1.73;;;1.47;;
7583;SDS011;74673;41.756;25.992;2023-12-20T07:39:51;1.50;;;1.50;;
7583;SDS011;74673;41.756;25.992;2023-12-20T07:42:18;3.60;;;3.40;;
7583;SDS011;74673;41.756;25.992;2023-12-20T07:44:47;3.67;;;3.47;;
7583;SDS011;74673;41.756;25.992;2023-12-20T07:47:14;2.00;;;1.90;;
7583;SDS011;74673;41.756;25.992;2023-12-20T07:49:48;2.10;;;2.00;;
7583;SDS011;74673;41.756;25.992;2023-12-20T07:52:16;1.50;;;1.40;;
7583;SDS011;74673;41.756;25.992;2023-12-20T07:54:43;3.60;;;3.30;;
7583;SDS011;74673;41.756;25.992;2023-12-20T07:57:10;2.80;;;2.70;;
7583;SDS011;74673;41.756;25.992;2023-12-20T07:59:37;3.23;;;2.20;;
7583;SDS011;74673;41.756;25.992;2023-12-20T08:02:04;2.27;;;2.17;;
7583;SDS011;74673;41.756;25.992;2023-12-20T08:04:32;1.70;;;1.60;;
7583;SDS011;74673;41.756;25.992;2023-12-20T08:07:00;2.13;;;1.90;;
7583;SDS011;74673;41.756;25.992;2023-12-20T08:09:27;3.40;;;3.17;;
7583;SDS011;74673;41.756;25.992;2023-12-20T08:11:55;3.27;;;3.10;;
7583;SDS011;74673;41.756;25.992;2023-12-20T08:14:22;3.40;;;3.10;;
7583;SDS011;74673;41.756;25.992;2023-12-20T08:16:49;3.17;;;2.87;;
7583;SDS011;74673;41.756;25.992;2023-12-20T08:19:16;2.70;;;2.50;;
7583;SDS011;74673;41.756;25.992;2023-12-20T08:21:43;3.53;;;3.00;;
7583;SDS011;74673;41.756;25.992;2023-12-20T08:24:12;7.37;;;4.40;;
7583;SDS011;74673;41.756;25.992;2023-12-20T08:26:39;3.73;;;3.43;;
7583;SDS011;74673;41.756;25.992;2023-12-20T08:29:06;3.40;;;3.13;;
7583;SDS011;74673;41.756;25.992;2023-12-20T08:31:33;4.70;;;3.73;;
7583;SDS011;74673;41.756;25.992;2023-12-20T08:34:00;3.87;;;3.47;;
7583;SDS011;74673;41.756;25.992;2023-12-20T08:36:27;4.50;;;2.77;;
7583;SDS011;74673;41.756;25.992;2023-12-20T08:38:54;5.27;;;4.73;;
7583;SDS011;74673;41.756;25.992;2023-12-20T08:41:23;6.03;;;5.13;;
7583;SDS011;74673;41.756;25.992;2023-12-20T08:43:50;5.80;;;4.20;;
7583;SDS011;74673;41.756;25.992;2023-12-20T08:46:17;4.33;;;3.83;;
7583;SDS011;74673;41.756;25.992;2023-12-20T08:48:44;3.50;;;3.20;;
7583;SDS011;74673;41.756;25.992;2023-12-20T08:51:12;4.10;;;3.10;;
7583;SDS011;74673;41.756;25.992;2023-12-20T08:53:40;4.73;;;3.83;;
7583;SDS011;74673;41.756;25.992;2023-12-20T08:56:07;4.40;;;4.00;;
7583;SDS011;74673;41.756;25.992;2023-12-20T08:58:35;5.63;;;4.53;;
7583;SDS011;74673;41.756;25.992;2023-12-20T09:01:03;4.23;;;3.73;;
7583;SDS011;74673;41.756;25.992;2023-12-20T09:03:30;2.93;;;2.30;;
7583;SDS011;74673;41.756;25.992;2023-12-20T09:05:57;4.80;;;4.47;;
7583;SDS011;74673;41.756;25.992;2023-12-20T09:08:24;5.50;;;4.30;;
7583;SDS011;74673;41.756;25.992;2023-12-20T09:10:51;4.43;;;3.37;;
7583;SDS011;74673;41.756;25.992;2023-12-20T09:13:18;3.60;;;3.30;;
7583;SDS011;74673;41.756;25.992;2023-12-20T09:15:47;3.77;;;2.63;;
7583;SDS011;74673;41.756;25.992;2023-12-20T09:18:14;2.33;;;2.13;;
7583;SDS011;74673;41.756;25.992;2023-12-20T09:20:41;3.00;;;2.40;;
7583;SDS011;74673;41.756;25.992;2023-12-20T09:23:08;5.27;;;3.20;;
7583;SDS011;74673;41.756;25.992;2023-12-20T09:25:35;7.17;;;4.37;;
7583;SDS011;74673;41.756;25.992;2023-12-20T09:28:02;5.33;;;3.73;;
7583;SDS011;74673;41.756;25.992;2023-12-20T09:30:30;5.27;;;4.00;;
7583;SDS011;74673;41.756;25.992;2023-12-20T09:32:59;4.57;;;3.50;;
7583;SDS011;74673;41.756;25.992;2023-12-20T09:35:26;3.77;;;3.03;;
7583;SDS011;74673;41.756;25.992;2023-12-20T09:37:53;3.27;;;2.83;;
7583;SDS011;74673;41.756;25.992;2023-12-20T09:40:20;3.60;;;2.80;;
7583;SDS011;74673;41.756;25.992;2023-12-20T09:42:48;3.47;;;3.10;;
7583;SDS011;74673;41.756;25.992;2023-12-20T09:45:20;2.33;;;2.13;;
7583;SDS011;74673;41.756;25.992;2023-12-20T09:47:48;2.57;;;2.37;;
7583;SDS011;74673;41.756;25.992;2023-12-20T09:50:17;3.67;;;2.43;;
7583;SDS011;74673;41.756;25.992;2023-12-20T09:52:45;5.00;;;4.70;;
7583;SDS011;74673;41.756;25.992;2023-12-20T09:55:12;4.20;;;3.80;;
7583;SDS011;74673;41.756;25.992;2023-12-20T09:57:40;12.53;;;6.40;;
7583;SDS011;74673;41.756;25.992;2023-12-20T10:00:08;3.60;;;3.00;;
7583;SDS011;74673;41.756;25.992;2023-12-20T10:02:36;7.03;;;4.23;;
7583;SDS011;74673;41.756;25.992;2023-12-20T10:05:06;3.00;;;2.80;;
7583;SDS011;74673;41.756;25.992;2023-12-20T10:07:36;3.23;;;2.73;;
7583;SDS011;74673;41.756;25.992;2023-12-20T10:10:03;3.77;;;3.03;;
7583;SDS011;74673;41.756;25.992;2023-12-20T10:12:32;3.47;;;3.00;;
7583;SDS011;74673;41.756;25.992;2023-12-20T10:14:59;4.27;;;3.23;;
7583;SDS011;74673;41.756;25.992;2023-12-20T10:17:27;6.43;;;3.07;;
7583;SDS011;74673;41.756;25.992;2023-12-20T10:19:55;2.57;;;2.40;;
7583;SDS011;74673;41.756;25.992;2023-12-20T10:22:23;4.77;;;4.07;;
7583;SDS011;74673;41.756;25.992;2023-12-20T10:24:52;5.43;;;4.97;;
7583;SDS011;74673;41.756;25.992;2023-12-20T10:27:19;3.43;;;3.07;;
7583;SDS011;74673;41.756;25.992;2023-12-20T10:29:46;5.20;;;3.27;;
7583;SDS011;74673;41.756;25.992;2023-12-20T10:32:23;4.13;;;2.83;;
7583;SDS011;74673;41.756;25.992;2023-12-20T10:34:50;9.60;;;4.27;;
7583;SDS011;74673;41.756;25.992;2023-12-20T10:37:18;3.90;;;3.27;;
7583;SDS011;74673;41.756;25.992;2023-12-20T10:39:45;7.77;;;4.20;;
7583;SDS011;74673;41.756;25.992;2023-12-20T10:42:17;4.50;;;3.33;;
7583;SDS011;74673;41.756;25.992;2023-12-20T10:44:45;4.10;;;3.73;;
7583;SDS011;74673;41.756;25.992;2023-12-20T10:47:13;5.33;;;4.00;;
7583;SDS011;74673;41.756;25.992;2023-12-20T10:49:40;11.40;;;6.37;;
7583;SDS011;74673;41.756;25.992;2023-12-20T10:52:07;8.37;;;5.30;;
7583;SDS011;74673;41.756;25.992;2023-12-20T10:54:34;9.17;;;3.97;;
7583;SDS011;74673;41.756;25.992;2023-12-20T10:57:01;3.33;;;3.03;;
7583;SDS011;74673;41.756;25.992;2023-12-20T10:59:34;3.27;;;3.03;;
7583;SDS011;74673;41.756;25.992;2023-12-20T11:02:03;2.40;;;2.20;;
7583;SDS011;74673;41.756;25.992;2023-12-20T11:04:33;5.27;;;2.50;;
7583;SDS011;74673;41.756;25.992;2023-12-20T11:07:06;3.63;;;2.60;;
7583;SDS011;74673;41.756;25.992;2023-12-20T11:09:38;4.73;;;3.00;;
7583;SDS011;74673;41.756;25.992;2023-12-20T11:12:09;4.70;;;2.80;;
7583;SDS011;74673;41.756;25.992;2023-12-20T11:14:42;2.50;;;2.30;;
7583;SDS011;74673;41.756;25.992;2023-12-20T11:17:12;2.90;;;2.50;;
7583;SDS011;74673;41.756;25.992;2023-12-20T11:22:35;4.30;;;2.67;;
7583;SDS011;74673;41.756;25.992;2023-12-20T11:25:04;4.60;;;3.60;;
7583;SDS011;74673;41.756;25.992;2023-12-20T11:27:33;7.10;;;4.23;;
7583;SDS011;74673;41.756;25.992;2023-12-20T11:30:02;4.83;;;3.77;;
7583;SDS011;74673;41.756;25.992;2023-12-20T11:32:31;4.90;;;4.23;;
7583;SDS011;74673;41.756;25.992;2023-12-20T11:35:00;3.53;;;2.83;;
7583;SDS011;74673;41.756;25.992;2023-12-20T11:37:28;4.30;;;3.13;;
7583;SDS011;74673;41.756;25.992;2023-12-20T11:40:00;4.23;;;3.80;;
7583;SDS011;74673;41.756;25.992;2023-12-20T11:42:27;5.37;;;3.77;;
7583;SDS011;74673;41.756;25.992;2023-12-20T11:44:55;3.60;;;3.03;;
7583;SDS011;74673;41.756;25.992;2023-12-20T11:47:24;4.53;;;3.43;;
7583;SDS011;74673;41.756;25.992;2023-12-20T11:49:52;6.47;;;3.33;;
7583;SDS011;74673;41.756;25.992;2023-12-20T11:52:21;4.20;;;3.30;;
7583;SDS011;74673;41.756;25.992;2023-12-20T11:54:48;3.87;;;3.00;;
7583;SDS011;74673;41.756;25.992;2023-12-20T11:57:16;4.97;;;3.00;;
7583;SDS011;74673;41.756;25.992;2023-12-20T11:59:43;6.37;;;3.43;;
7583;SDS011;74673;41.756;25.992;2023-12-20T12:02:11;6.27;;;3.80;;
7583;SDS011;74673;41.756;25.992;2023-12-20T12:04:42;4.80;;;3.93;;
7583;SDS011;74673;41.756;25.992;2023-12-20T12:07:09;4.10;;;3.70;;
7583;SDS011;74673;41.756;25.992;2023-12-20T12:09:36;4.17;;;3.37;;
7583;SDS011;74673;41.756;25.992;2023-12-20T12:12:03;5.87;;;3.77;;
7583;SDS011;74673;41.756;25.992;2023-12-20T12:14:31;5.73;;;3.23;;
7583;SDS011;74673;41.756;25.992;2023-12-20T12:16:59;4.30;;;2.73;;
7583;SDS011;74673;41.756;25.992;2023-12-20T12:19:26;6.33;;;3.67;;
7583;SDS011;74673;41.756;25.992;2023-12-20T12:22:05;3.20;;;2.90;;
7583;SDS011;74673;41.756;25.992;2023-12-20T12:24:35;4.27;;;3.50;;
7583;SDS011;74673;41.756;25.992;2023-12-20T12:27:02;3.97;;;3.10;;
7583;SDS011;74673;41.756;25.992;2023-12-20T12:29:32;3.23;;;2.93;;
7583;SDS011;74673;41.756;25.992;2023-12-20T12:31:59;3.70;;;3.07;;
7583;SDS011;74673;41.756;25.992;2023-12-20T12:34:27;3.20;;;2.53;;
7583;SDS011;74673;41.756;25.992;2023-12-20T12:36:54;2.63;;;2.33;;
7583;SDS011;74673;41.756;25.992;2023-12-20T12:39:23;3.73;;;3.17;;
7583;SDS011;74673;41.756;25.992;2023-12-20T12:41:51;2.87;;;2.43;;
7583;SDS011;74673;41.756;25.992;2023-12-20T12:44:18;3.20;;;2.77;;
7583;SDS011;74673;41.756;25.992;2023-12-20T12:46:47;3.97;;;3.07;;
7583;SDS011;74673;41.756;25.992;2023-12-20T12:49:16;3.13;;;2.27;;
7583;SDS011;74673;41.756;25.992;2023-12-20T12:51:43;3.13;;;2.90;;
7583;SDS011;74673;41.756;25.992;2023-12-20T12:54:10;2.83;;;2.60;;
7583;SDS011;74673;41.756;25.992;2023-12-20T12:56:40;2.37;;;2.17;;
7583;SDS011;74673;41.756;25.992;2023-12-20T12:59:07;4.43;;;2.80;;
7583;SDS011;74673;41.756;25.992;2023-12-20T13:01:34;2.60;;;2.23;;
7583;SDS011;74673;41.756;25.992;2023-12-20T13:04:01;2.47;;;2.27;;
7583;SDS011;74673;41.756;25.992;2023-12-20T13:06:31;2.50;;;2.30;;
7583;SDS011;74673;41.756;25.992;2023-12-20T13:08:58;2.83;;;2.23;;
7583;SDS011;74673;41.756;25.992;2023-12-20T13:11:25;2.50;;;2.30;;
7583;SDS011;74673;41.756;25.992;2023-12-20T13:13:54;2.00;;;1.90;;
7583;SDS011;74673;41.756;25.992;2023-12-20T13:16:22;2.00;;;1.83;;
7583;SDS011;74673;41.756;25.992;2023-12-20T13:18:49;2.50;;;2.30;;
7583;SDS011;74673;41.756;25.992;2023-12-20T13:21:17;2.20;;;2.10;;
7583;SDS011;74673;41.756;25.992;2023-12-20T13:23:44;2.17;;;1.93;;
7583;SDS011;74673;41.756;25.992;2023-12-20T13:26:11;3.10;;;2.17;;
7583;SDS011;74673;41.756;25.992;2023-12-20T13:28:38;3.47;;;2.33;;
7583;SDS011;74673;41.756;25.992;2023-12-20T13:31:07;2.87;;;2.30;;
7583;SDS011;74673;41.756;25.992;2023-12-20T13:33:34;3.53;;;2.87;;
7583;SDS011;74673;41.756;25.992;2023-12-20T13:36:04;3.03;;;2.10;;
7583;SDS011;74673;41.756;25.992;2023-12-20T13:38:32;2.00;;;1.90;;
7583;SDS011;74673;41.756;25.992;2023-12-20T13:40:59;4.30;;;2.70;;
7583;SDS011;74673;41.756;25.992;2023-12-20T13:43:26;3.10;;;2.63;;
7583;SDS011;74673;41.756;25.992;2023-12-20T13:45:53;3.17;;;2.97;;
7583;SDS011;74673;41.756;25.992;2023-12-20T13:48:22;2.60;;;2.40;;
7583;SDS011;74673;41.756;25.992;2023-12-20T13:50:50;4.23;;;2.87;;
7583;SDS011;74673;41.756;25.992;2023-12-20T13:53:17;2.37;;;2.17;;
7583;SDS011;74673;41.756;25.992;2023-12-20T13:55:44;2.73;;;1.73;;
7583;SDS011;74673;41.756;25.992;2023-12-20T13:58:11;1.87;;;1.67;;
7583;SDS011;74673;41.756;25.992;2023-12-20T14:00:39;1.57;;;1.47;;
7583;SDS011;74673;41.756;25.992;2023-12-20T14:03:06;1.70;;;1.60;;
7583;SDS011;74673;41.756;25.992;2023-12-20T14:05:38;1.50;;;1.50;;
7583;SDS011;74673;41.756;25.992;2023-12-20T14:08:06;1.93;;;1.83;;
7583;SDS011;74673;41.756;25.992;2023-12-20T14:10:34;2.70;;;2.50;;
7583;SDS011;74673;41.756;25.992;2023-12-20T14:13:01;2.60;;;2.50;;
7583;SDS011;74673;41.756;25.992;2023-12-20T14:15:28;2.13;;;1.67;;
7583;SDS011;74673;41.756;25.992;2023-12-20T14:17:56;2.00;;;1.90;;
7583;SDS011;74673;41.756;25.992;2023-12-20T14:20:23;1.40;;;1.40;;
7583;SDS011;74673;41.756;25.992;2023-12-20T14:22:51;2.60;;;2.50;;
7583;SDS011;74673;41.756;25.992;2023-12-20T14:25:18;2.67;;;2.57;;
7583;SDS011;74673;41.756;25.992;2023-12-20T14:27:48;1.70;;;1.60;;
7583;SDS011;74673;41.756;25.992;2023-12-20T14:30:15;2.17;;;1.77;;
7583;SDS011;74673;41.756;25.992;2023-12-20T14:32:42;1.50;;;1.50;;
7583;SDS011;74673;41.756;25.992;2023-12-20T14:35:09;2.37;;;2.27;;
7583;SDS011;74673;41.756;25.992;2023-12-20T14:37:37;2.50;;;2.30;;
7583;SDS011;74673;41.756;25.992;2023-12-20T14:40:07;1.80;;;1.70;;
7583;SDS011;74673;41.756;25.992;2023-12-20T14:42:40;1.80;;;1.70;;
7583;SDS011;74673;41.756;25.992;2023-12-20T14:45:07;1.40;;;1.30;;
7583;SDS011;74673;41.756;25.992;2023-12-20T14:47:35;1.27;;;1.20;;
7583;SDS011;74673;41.756;25.992;2023-12-20T14:50:02;1.50;;;1.50;;
7583;SDS011;74673;41.756;25.992;2023-12-20T14:52:30;1.47;;;1.47;;
7583;SDS011;74673;41.756;25.992;2023-12-20T14:54:58;3.30;;;2.97;;